.
WxDataArchive / Data Records for 2008-01-02
2008-01-01 January 2008 2008-01-03

Data Records for Wednesday, 02 January 2008

Time	Temp	Chill	HIndex	Humid	Dewpt	 Wind 	HiWind	WindDir	Rain 	Barom 
-----	----	-----	------	-----	-----	------	------	-------	-----	----- 
00:00	20.5	14.8	20.5	84	16.4	4	10	270	0.00	30.156 
00:05	20.3	14.6	20.3	84	16.3	4	11	270	0.00	30.158 
00:10	20.2	14.4	20.2	84	16.2	4	10	270	0.00	30.158 
00:15	20.0	14.2	20.0	84	16.0	4	8	270	0.00	30.158 
00:20	19.9	14.1	19.9	84	15.9	4	9	270	0.00	30.159 
00:25	19.9	14.1	19.9	84	15.9	4	12	292	0.00	30.159 
00:30	19.7	19.7	19.7	84	15.7	3	9	315	0.00	30.158 
00:35	19.7	19.7	19.7	84	15.7	3	8	270	0.00	30.160 
00:40	19.5	13.6	19.5	84	15.5	4	12	270	0.00	30.160 
00:45	19.5	13.6	19.5	84	15.5	4	9	315	0.00	30.161 
00:50	19.5	13.6	19.5	84	15.5	4	7	292	0.00	30.161 
00:55	19.5	19.5	19.5	84	15.5	3	10	270	0.00	30.161 
01:00	19.4	13.5	19.4	84	15.4	4	6	292	0.00	30.165 
01:05	19.4	19.4	19.4	84	15.4	3	9	292	0.00	30.166 
01:10	19.4	13.5	19.4	83	15.1	4	13	270	0.00	30.169 
01:15	19.4	19.4	19.4	83	15.1	3	7	270	0.00	30.168 
01:20	19.4	13.5	19.4	83	15.1	4	9	270	0.00	30.174 
01:25	19.4	13.5	19.4	83	15.1	4	9	270	0.00	30.175 
01:30	19.2	13.3	19.2	83	14.9	4	9	270	0.00	30.176 
01:35	19.2	13.3	19.2	83	14.9	4	7	270	0.00	30.177 
01:40	19.2	13.3	19.2	83	14.9	4	12	270	0.00	30.177 
01:45	19.2	13.3	19.2	83	14.9	4	7	270	0.00	30.178 
01:50	19.2	13.3	19.2	83	14.9	4	7	270	0.00	30.182 
01:55	19.2	13.3	19.2	83	14.9	4	13	270	0.00	30.186 
02:00	19.1	19.1	19.1	83	14.8	3	6	270	0.00	30.191 
02:05	18.8	18.8	18.8	82	14.2	3	6	270	0.00	30.192 
02:10	18.3	18.3	18.3	82	13.7	3	6	270	0.00	30.195 
02:15	18.0	18.0	18.0	83	13.7	2	4	270	0.00	30.197 
02:20	17.7	17.7	17.7	83	13.4	3	6	270	0.00	30.200 
02:25	17.3	17.3	17.3	83	13.0	3	6	270	0.00	30.202 
02:30	17.2	17.2	17.2	83	12.9	3	6	270	0.00	30.207 
02:35	16.9	16.9	16.9	83	12.6	2	5	270	0.00	30.210 
02:40	16.7	16.7	16.7	83	12.5	3	5	270	0.00	30.210 
02:45	16.5	16.5	16.5	83	12.3	3	6	270	0.00	30.212 
02:50	16.5	16.5	16.5	83	12.3	3	5	270	0.00	30.215 
02:55	16.4	16.4	16.4	83	12.2	3	7	270	0.00	30.222 
03:00	16.2	16.2	16.2	83	12.0	3	6	270	0.00	30.226 
03:05	16.1	16.1	16.1	83	11.9	3	10	270	0.00	30.229 
03:10	15.9	15.9	15.9	83	11.7	3	6	270	0.00	30.231 
03:15	15.7	15.7	15.7	84	11.7	3	5	270	0.00	30.236 
03:20	15.6	15.6	15.6	84	11.6	3	7	270	0.00	30.241 
03:25	15.6	9.1	15.6	84	11.6	4	7	270	0.00	30.243 
03:30	15.4	15.4	15.4	84	11.4	3	7	270	0.00	30.246 
03:35	15.2	8.7	15.2	84	11.3	4	9	270	0.00	30.250 
03:40	15.1	8.6	15.1	84	11.2	4	7	270	0.00	30.251 
03:45	14.9	14.9	14.9	84	11.0	3	7	270	0.00	30.252 
03:50	14.9	14.9	14.9	84	11.0	3	7	292	0.00	30.255 
03:55	14.9	14.9	14.9	84	11.0	3	5	292	0.00	30.255 
04:00	14.9	8.3	14.9	84	11.0	4	10	270	0.00	30.254 
04:05	14.9	14.9	14.9	84	11.0	3	7	292	0.00	30.260 
04:10	14.9	14.9	14.9	84	11.0	2	5	315	0.00	30.261 
04:15	14.9	14.9	14.9	84	11.0	2	5	292	0.00	30.264 
04:20	14.9	14.9	14.9	84	11.0	3	7	292	0.00	30.264 
04:25	15.1	15.1	15.1	84	11.2	1	5	270	0.00	30.265 
04:30	15.1	15.1	15.1	84	11.2	2	5	270	0.00	30.268 
04:35	14.9	14.9	14.9	84	11.0	3	6	270	0.00	30.269 
04:40	14.9	14.9	14.9	84	11.0	2	5	270	0.00	30.274 
04:45	14.9	14.9	14.9	84	11.0	2	4	270	0.00	30.278 
04:50	14.9	14.9	14.9	84	11.0	2	4	270	0.00	30.279 
04:55	15.1	15.1	15.1	84	11.2	3	5	270	0.00	30.281 
05:00	15.1	15.1	15.1	84	11.2	2	4	270	0.00	30.284 
05:05	15.1	15.1	15.1	84	11.2	2	4	292	0.00	30.290 
05:10	15.1	15.1	15.1	84	11.2	3	6	270	0.00	30.292 
05:15	15.1	15.1	15.1	84	11.2	3	8	270	0.00	30.293 
05:20	14.9	14.9	14.9	83	10.7	3	6	270	0.00	30.294 
05:25	14.9	14.9	14.9	83	10.7	2	6	270	0.00	30.295 
05:30	14.9	14.9	14.9	83	10.7	3	6	270	0.00	30.300 
05:35	14.9	14.9	14.9	83	10.7	3	5	270	0.00	30.303 
05:40	14.9	14.9	14.9	83	10.7	3	5	270	0.00	30.309 
05:45	14.9	14.9	14.9	83	10.7	3	6	270	0.00	30.311 
05:50	14.9	14.9	14.9	83	10.7	3	5	292	0.00	30.312 
05:55	14.9	14.9	14.9	83	10.7	3	7	270	0.00	30.317 
06:00	14.9	14.9	14.9	83	10.7	3	6	270	0.00	30.322 
06:05	14.8	14.8	14.8	83	10.6	3	5	270	0.00	30.327 
06:10	14.8	14.8	14.8	83	10.6	2	5	270	0.00	30.329 
06:15	14.8	14.8	14.8	83	10.6	2	6	270	0.00	30.333 
06:20	14.8	14.8	14.8	83	10.6	2	4	270	0.00	30.337 
06:25	14.8	14.8	14.8	83	10.6	3	5	270	0.00	30.340 
06:30	14.8	14.8	14.8	84	10.9	2	4	270	0.00	30.342 
06:35	14.8	14.8	14.8	84	10.9	2	4	270	0.00	30.341 
06:40	14.8	14.8	14.8	84	10.9	2	5	270	0.00	30.343 
06:45	14.9	14.9	14.9	84	11.0	3	6	270	0.00	30.345 
06:50	14.9	14.9	14.9	84	11.0	2	5	270	0.00	30.348 
06:55	15.1	15.1	15.1	84	11.2	3	5	270	0.00	30.354 
07:00	15.1	15.1	15.1	84	11.2	2	5	270	0.00	30.359 
07:05	15.1	15.1	15.1	84	11.2	3	4	270	0.00	30.358 
07:10	15.1	15.1	15.1	84	11.2	2	4	270	0.00	30.358 
07:15	15.1	15.1	15.1	84	11.2	3	4	270	0.00	30.361 
07:20	15.1	15.1	15.1	84	11.2	2	3	270	0.00	30.365 
07:25	15.1	15.1	15.1	84	11.2	3	6	270	0.00	30.369 
07:30	14.9	14.9	14.9	83	10.7	3	4	270	0.00	30.372 
07:35	14.9	14.9	14.9	83	10.7	3	7	270	0.00	30.373 
07:40	14.9	14.9	14.9	83	10.7	2	4	270	0.00	30.374 
07:45	14.9	14.9	14.9	83	10.7	2	4	270	0.00	30.378 
07:50	14.9	14.9	14.9	84	11.0	2	4	270	0.00	30.384 
07:55	14.9	14.9	14.9	83	10.7	2	6	270	0.00	30.387 
08:00	14.8	14.8	14.8	83	10.6	2	4	270	0.00	30.388 
08:05	14.8	14.8	14.8	83	10.6	2	4	270	0.00	30.394 
08:10	14.6	14.6	14.6	83	10.4	2	7	270	0.00	30.398 
08:15	14.4	14.4	14.4	82	9.9	3	5	270	0.00	30.402 
08:20	14.3	14.3	14.3	82	9.8	3	6	270	0.00	30.405 
08:25	14.1	14.1	14.1	82	9.6	3	5	270	0.00	30.406 
08:30	14.3	14.3	14.3	83	10.1	2	3	270	0.00	30.407 
08:35	14.3	14.3	14.3	83	10.1	2	6	270	0.00	30.407 
08:40	14.3	14.3	14.3	82	9.8	3	10	270	0.00	30.409 
08:45	14.1	14.1	14.1	82	9.6	3	7	270	0.00	30.412 
08:50	14.1	14.1	14.1	82	9.6	3	6	270	0.00	30.414 
08:55	14.1	14.1	14.1	82	9.6	2	10	270	0.00	30.416 
09:00	14.0	14.0	14.0	81	9.3	2	4	270	0.00	30.420 
09:05	13.6	13.6	13.6	81	8.9	2	4	270	0.00	30.423 
09:10	13.3	13.3	13.3	81	8.6	3	6	270	0.00	30.427 
09:15	12.9	12.9	12.9	81	8.2	2	6	270	0.00	30.438 
09:20	12.8	12.8	12.8	80	7.8	3	9	270	0.00	30.439 
09:25	12.4	12.4	12.4	80	7.4	2	5	270	0.00	30.441 
09:30	12.1	12.1	12.1	79	6.9	3	7	270	0.00	30.443 
09:35	11.7	11.7	11.7	79	6.5	3	10	248	0.00	30.449 
09:40	11.4	11.4	11.4	79	6.2	3	7	270	0.00	30.453 
09:45	11.2	11.2	11.2	79	6.0	2	5	248	0.00	30.457 
09:50	11.1	11.1	11.1	79	5.9	2	6	270	0.00	30.464 
09:55	10.7	10.7	10.7	78	5.2	3	6	270	0.00	30.468 
10:00	10.5	10.5	10.5	78	5.0	3	7	270	0.00	30.470 
10:05	10.2	10.2	10.2	78	4.7	3	7	270	0.00	30.471 
10:10	10.2	10.2	10.2	78	4.7	3	7	270	0.00	30.473 
10:15	10.2	10.2	10.2	78	4.7	3	6	270	0.00	30.474 
10:20	10.4	10.4	10.4	78	4.9	2	5	270	0.00	30.474 
10:25	10.4	10.4	10.4	78	4.9	3	9	270	0.00	30.477 
10:30	10.4	10.4	10.4	78	4.9	3	8	270	0.00	30.481 
10:35	10.4	10.4	10.4	77	4.6	3	6	270	0.00	30.484 
10:40	10.5	10.5	10.5	77	4.7	2	5	270	0.00	30.485 
10:45	10.7	10.7	10.7	77	4.9	2	5	270	0.00	30.489 
10:50	10.7	10.7	10.7	77	4.9	3	7	270	0.00	30.495 
10:55	10.7	10.7	10.7	77	4.9	3	9	270	0.00	30.499 
11:00	11.1	11.1	11.1	77	5.3	3	7	270	0.00	30.494 
11:05	11.4	11.4	11.4	77	5.6	3	7	270	0.00	30.494 
11:10	11.4	11.4	11.4	76	5.3	3	6	270	0.00	30.495 
11:15	11.2	11.2	11.2	76	5.1	3	6	270	0.00	30.492 
11:20	11.2	4.0	11.2	75	4.9	4	11	270	0.00	30.495 
11:25	11.2	11.2	11.2	76	5.1	3	7	270	0.00	30.500 
11:30	11.4	11.4	11.4	76	5.3	2	6	270	0.00	30.501 
11:35	11.6	11.6	11.6	75	5.2	2	7	270	0.00	30.503 
11:40	11.7	11.7	11.7	76	5.6	2	5	270	0.00	30.503 
11:45	11.7	11.7	11.7	75	5.3	3	6	270	0.00	30.503 
11:50	11.7	11.7	11.7	75	5.3	2	6	270	0.00	30.504 
11:55	11.9	11.9	11.9	74	5.2	3	9	270	0.00	30.502 
12:00	11.7	11.7	11.7	74	5.0	3	9	270	0.00	30.501 
12:05	11.7	11.7	11.7	75	5.3	2	5	270	0.00	30.504 
12:10	11.9	11.9	11.9	74	5.2	3	5	270	0.00	30.505 
12:15	11.9	11.9	11.9	74	5.2	3	6	292	0.00	30.508 
12:20	12.1	12.1	12.1	74	5.4	3	7	270	0.00	30.516 
12:25	12.1	12.1	12.1	74	5.4	3	7	270	0.00	30.517 
12:30	12.4	12.4	12.4	74	5.7	3	6	292	0.00	30.518 
12:35	12.4	12.4	12.4	74	5.7	3	7	270	0.00	30.520 
12:40	12.6	12.6	12.6	74	5.9	2	4	270	0.00	30.517 
12:45	12.8	12.8	12.8	74	6.1	2	7	270	0.00	30.517 
12:50	12.9	12.9	12.9	73	5.9	3	10	270	0.00	30.519 
12:55	12.9	12.9	12.9	73	5.9	3	5	270	0.00	30.519 
13:00	12.9	12.9	12.9	73	5.9	2	6	270	0.00	30.524 
13:05	12.9	12.9	12.9	73	5.9	2	4	270	0.00	30.524 
13:10	13.1	13.1	13.1	73	6.1	2	5	270	0.00	30.525 
13:15	13.3	13.3	13.3	73	6.3	2	5	292	0.00	30.525 
13:20	13.6	13.6	13.6	73	6.6	2	6	270	0.00	30.528 
13:25	13.6	13.6	13.6	73	6.6	2	10	270	0.00	30.529 
13:30	13.5	13.5	13.5	73	6.5	3	6	270	0.00	30.531 
13:35	13.3	13.3	13.3	73	6.3	3	6	270	0.00	30.532 
13:40	13.3	13.3	13.3	73	6.3	3	6	248	0.00	30.534 
13:45	13.1	13.1	13.1	73	6.1	2	6	270	0.00	30.534 
13:50	12.9	12.9	12.9	73	5.9	2	6	270	0.00	30.533 
13:55	12.9	12.9	12.9	73	5.9	2	5	270	0.00	30.535 
14:00	12.9	12.9	12.9	73	5.9	3	6	270	0.00	30.535 
14:05	12.9	12.9	12.9	73	5.9	3	5	270	0.00	30.538 
14:10	12.8	12.8	12.8	73	5.8	2	9	270	0.00	30.538 
14:15	12.6	12.6	12.6	73	5.6	3	7	248	0.00	30.537 
14:20	12.6	12.6	12.6	73	5.6	3	8	270	0.00	30.536 
14:25	12.4	12.4	12.4	74	5.7	2	6	270	0.00	30.532 
14:30	12.3	12.3	12.3	74	5.6	2	6	270	0.00	30.537 
14:35	12.3	12.3	12.3	74	5.6	2	6	270	0.00	30.536 
14:40	12.3	12.3	12.3	74	5.6	1	4	270	0.00	30.538 
14:45	12.3	12.3	12.3	74	5.6	3	6	270	0.00	30.539 
14:50	12.3	12.3	12.3	74	5.6	3	5	270	0.00	30.545 
14:55	12.4	12.4	12.4	74	5.7	2	5	270	0.00	30.546 
15:00	12.4	12.4	12.4	74	5.7	3	9	248	0.00	30.551 
15:05	12.3	12.3	12.3	74	5.6	2	4	270	0.00	30.554 
15:10	12.3	12.3	12.3	74	5.6	2	6	270	0.00	30.556 
15:15	12.1	12.1	12.1	74	5.4	3	11	270	0.00	30.559 
15:20	12.3	12.3	12.3	75	5.9	1	3	270	0.00	30.559 
15:25	12.3	12.3	12.3	74	5.6	3	9	270	0.00	30.558 
15:30	12.1	12.1	12.1	75	5.7	3	9	270	0.00	30.560 
15:35	12.1	12.1	12.1	75	5.7	2	7	248	0.00	30.569 
15:40	11.9	11.9	11.9	74	5.2	2	6	248	0.00	30.571 
15:45	11.7	11.7	11.7	75	5.3	2	7	270	0.00	30.575 
15:50	11.2	11.2	11.2	75	4.9	2	6	270	0.00	30.575 
15:55	11.1	11.1	11.1	75	4.8	1	3	270	0.00	30.577 
16:00	10.7	10.7	10.7	75	4.4	2	5	270	0.00	30.585 
16:05	10.7	10.7	10.7	76	4.7	2	5	270	0.00	30.585 
16:10	10.5	10.5	10.5	76	4.5	3	6	270	0.00	30.585 
16:15	10.5	10.5	10.5	76	4.5	2	6	270	0.00	30.586 
16:20	10.7	10.7	10.7	77	4.9	1	5	270	0.00	30.588 
16:25	10.7	10.7	10.7	77	4.9	1	5	248	0.00	30.590 
16:30	10.7	10.7	10.7	77	4.9	2	7	270	0.00	30.597 
16:35	10.5	10.5	10.5	76	4.5	3	7	270	0.00	30.591 
16:40	10.4	10.4	10.4	76	4.4	3	6	270	0.00	30.595 
16:45	10.2	10.2	10.2	76	4.2	3	7	270	0.00	30.596 
16:50	10.2	10.2	10.2	77	4.5	2	4	248	0.00	30.597 
16:55	10.2	10.2	10.2	77	4.5	2	10	270	0.00	30.595 
17:00	10.2	10.2	10.2	77	4.5	2	6	270	0.00	30.596 
17:05	10.0	10.0	10.0	77	4.3	2	6	270	0.00	30.596 
17:10	10.0	10.0	10.0	77	4.3	2	6	248	0.00	30.596 
17:15	9.9	9.9	9.9	77	4.2	2	7	248	0.00	30.595 
17:20	9.9	9.9	9.9	77	4.2	1	3	270	0.00	30.600 
17:25	9.9	9.9	9.9	77	4.2	2	6	248	0.00	30.601 
17:30	9.9	9.9	9.9	77	4.2	1	5	248	0.00	30.605 
17:35	9.9	9.9	9.9	78	4.4	1	4	248	0.00	30.604 
17:40	9.9	9.9	9.9	78	4.4	1	6	248	0.00	30.606 
17:45	9.9	9.9	9.9	78	4.4	2	6	270	0.00	30.610 
17:50	9.7	9.7	9.7	78	4.2	2	10	270	0.00	30.615 
17:55	9.7	9.7	9.7	77	4.0	2	6	270	0.00	30.616 
18:00	9.5	9.5	9.5	78	4.0	2	5	270	0.00	30.619 
18:05	9.5	9.5	9.5	78	4.0	2	4	248	0.00	30.619 
18:10	9.5	9.5	9.5	78	4.0	1	3	270	0.00	30.623 
18:15	9.5	9.5	9.5	78	4.0	2	9	270	0.00	30.625 
18:20	9.5	9.5	9.5	78	4.0	1	3	270	0.00	30.625 
18:25	9.5	9.5	9.5	78	4.0	0	4	248	0.00	30.628 
18:30	9.7	9.7	9.7	78	4.2	3	7	248	0.00	30.632 
18:35	9.5	9.5	9.5	78	4.0	2	10	270	0.00	30.635 
18:40	9.5	9.5	9.5	78	4.0	1	6	270	0.00	30.635 
18:45	9.5	9.5	9.5	78	4.0	2	7	248	0.00	30.637 
18:50	9.7	9.7	9.7	78	4.2	2	5	248	0.00	30.637 
18:55	9.5	9.5	9.5	78	4.0	2	8	270	0.00	30.638 
19:00	9.5	9.5	9.5	78	4.0	2	6	270	0.00	30.639 
19:05	9.5	9.5	9.5	78	4.0	2	7	270	0.00	30.643 
19:10	9.5	9.5	9.5	78	4.0	3	7	270	0.00	30.642 
19:15	9.7	9.7	9.7	78	4.2	2	6	270	0.00	30.645 
19:20	9.7	9.7	9.7	78	4.2	2	7	270	0.00	30.649 
19:25	9.9	9.9	9.9	79	4.7	1	3	248	0.00	30.651 
19:30	9.9	9.9	9.9	79	4.7	1	4	248	0.00	30.653 
19:35	10.0	10.0	10.0	79	4.8	1	3	292	0.00	30.659 
19:40	10.0	10.0	10.0	79	4.8	2	6	248	0.00	30.656 
19:45	10.0	10.0	10.0	78	4.5	3	8	270	0.00	30.657 
19:50	10.0	10.0	10.0	79	4.8	2	5	270	0.00	30.656 
19:55	10.0	10.0	10.0	79	4.8	2	4	248	0.00	30.653 
20:00	10.2	10.2	10.2	79	5.0	1	4	270	0.00	30.660 
20:05	10.2	10.2	10.2	79	5.0	2	5	270	0.00	30.664 
20:10	10.4	10.4	10.4	79	5.2	1	4	270	0.00	30.665 
20:15	10.5	10.5	10.5	80	5.6	1	4	248	0.00	30.667 
20:20	10.7	10.7	10.7	80	5.8	1	3	248	0.00	30.667 
20:25	10.7	10.7	10.7	80	5.8	1	3	270	0.00	30.666 
20:30	10.9	10.9	10.9	80	6.0	1	4	248	0.00	30.666 
20:35	10.9	10.9	10.9	80	6.0	2	9	248	0.00	30.666 
20:40	10.9	10.9	10.9	80	6.0	1	6	248	0.00	30.664 
20:45	10.9	10.9	10.9	80	6.0	0	3	248	0.00	30.662 
20:50	10.9	10.9	10.9	80	6.0	0	3	248	0.00	30.666 
20:55	10.9	10.9	10.9	80	6.0	1	6	270	0.00	30.667 
21:00	10.9	10.9	10.9	80	6.0	1	3	270	0.00	30.668 
21:05	10.7	10.7	10.7	80	5.8	1	3	270	0.00	30.673 
21:10	10.7	10.7	10.7	80	5.8	0	2	248	0.00	30.673 
21:15	10.5	10.5	10.5	80	5.6	1	3	248	0.00	30.670 
21:20	10.4	10.4	10.4	80	5.5	1	4	248	0.00	30.672 
21:25	10.2	10.2	10.2	80	5.3	0	1	248	0.00	30.672 
21:30	9.9	9.9	9.9	80	5.0	0	4	248	0.00	30.670 
21:35	9.9	9.9	9.9	81	5.3	1	3	248	0.00	30.669 
21:40	9.7	9.7	9.7	81	5.1	0	3	248	0.00	30.671 
21:45	9.5	9.5	9.5	81	4.9	0	1	248	0.00	30.671 
21:50	9.5	9.5	9.5	81	4.9	0	1	248	0.00	30.671 
21:55	9.3	9.3	9.3	81	4.7	0	1	248	0.00	30.671 
22:00	9.3	9.3	9.3	82	4.9	0	1	248	0.00	30.670 
22:05	9.5	9.5	9.5	82	5.1	0	1	248	0.00	30.670 
22:10	9.5	9.5	9.5	82	5.1	0	1	248	0.00	30.667 
22:15	9.7	9.7	9.7	83	5.6	0	1	248	0.00	30.667 
22:20	9.9	9.9	9.9	83	5.8	0	1	248	0.00	30.666 
22:25	10.0	10.0	10.0	83	5.9	0	1	248	0.00	30.667 
22:30	9.9	9.9	9.9	83	5.8	0	0	---	0.00	30.670 
22:35	9.7	9.7	9.7	83	5.6	0	0	---	0.00	30.672 
22:40	9.5	9.5	9.5	83	5.4	0	0	---	0.00	30.673 
22:45	9.5	9.5	9.5	83	5.4	0	0	---	0.00	30.672 
22:50	9.7	9.7	9.7	84	5.9	0	1	248	0.00	30.671 
22:55	9.7	9.7	9.7	84	5.9	0	0	---	0.00	30.671 
23:00	9.9	9.9	9.9	84	6.1	0	1	248	0.00	30.672 
23:05	10.2	10.2	10.2	84	6.3	0	1	248	0.00	30.671 
23:10	10.4	10.4	10.4	85	6.8	0	1	248	0.00	30.672 
23:15	10.5	10.5	10.5	85	6.9	0	1	248	0.00	30.671 
23:20	10.7	10.7	10.7	85	7.1	0	2	248	0.00	30.673 
23:25	11.1	11.1	11.1	85	7.5	0	2	248	0.00	30.673 
23:30	11.2	11.2	11.2	84	7.3	0	2	248	0.00	30.675 
23:35	11.2	11.2	11.2	84	7.3	0	1	248	0.00	30.676 
23:40	11.2	11.2	11.2	84	7.3	0	1	248	0.00	30.679 
23:45	11.4	11.4	11.4	84	7.5	0	1	248	0.00	30.680 
23:50	11.4	11.4	11.4	84	7.5	0	3	248	0.00	30.680 
23:55	11.6	11.6	11.6	84	7.7	0	2	248	0.00	30.681 

CoCoRaHS
IN-AL-39
A2 Web Hosting
Creative Commons License
GoDaddy
Look for:

loaded 2017-10-17 18:19:29 • last modified 2010-11-18 10:43:29
Privacy PolicyDisclaimer
• wx.awcolley.com is powered by PmWiki v.2002016 •
• all content (unless otherwise noted) © 2017 A W Colley